Time;durP1;ratioP1;P1;durP2;ratioP2;P2;SDS_P1;SDS_P2;PMS_P1;PMS_P2;Temp;Humidity;BMP_temperature;BMP_pressure;BME280_temperature;BME280_humidity;BME280_pressure;Samples;Min_cycle;Max_cycle;Signal;HPM_P1;HPM_P2
2021/10/26 00:01:46;;;;;;;5.90;4.45;;;5.00;78.00;;;;;;5135185;27;20199;-63
2021/10/26 00:04:13;;;;;;;6.32;4.05;;;5.00;78.30;;;;;;5127796;27;20546;-63
2021/10/26 00:06:41;;;;;;;7.88;5.00;;;4.90;78.30;;;;;;5114527;28;20215;-63
2021/10/26 00:09:10;;;;;;;5.07;4.30;;;4.90;78.60;;;;;;5130202;27;20270;-63
2021/10/26 00:11:37;;;;;;;7.13;4.60;;;4.90;78.10;;;;;;5135112;27;20226;-63
2021/10/26 00:14:05;;;;;;;7.38;4.93;;;4.90;77.70;;;;;;5119599;27;20265;-62
2021/10/26 00:16:32;;;;;;;6.03;4.55;;;4.80;77.80;;;;;;5114520;28;20194;-63
2021/10/26 00:19:00;;;;;;;6.18;4.70;;;4.70;77.90;;;;;;5127293;27;20247;-63
2021/10/26 00:21:27;;;;;;;6.68;4.55;;;4.70;78.20;;;;;;5134780;27;20207;-63
2021/10/26 00:23:55;;;;;;;6.10;4.65;;;4.60;78.40;;;;;;5120800;27;20545;-64
2021/10/26 00:26:23;;;;;;;9.23;5.38;;;4.60;79.00;;;;;;5114094;28;20275;-64
2021/10/26 00:28:51;;;;;;;5.95;5.05;;;4.60;78.90;;;;;;5125796;27;20183;-63
2021/10/26 00:31:18;;;;;;;5.95;5.00;;;4.70;79.30;;;;;;5134555;27;20191;-63
2021/10/26 00:33:46;;;;;;;6.65;4.10;;;4.70;80.00;;;;;;5122759;27;20180;-63
2021/10/26 00:36:15;;;;;;;5.95;3.97;;;4.70;80.40;;;;;;5113733;28;20650;-63
2021/10/26 00:38:42;;;;;;;10.35;5.15;;;4.70;79.60;;;;;;5124466;27;20213;-63
2021/10/26 00:41:12;;;;;;;8.98;5.68;;;4.70;78.40;;;;;;5134406;27;20653;-64
2021/10/26 00:43:47;;;;;;;9.25;5.72;;;4.60;78.70;;;;;;5123604;27;20217;-63
2021/10/26 00:46:14;;;;;;;8.02;4.75;;;4.70;80.00;;;;;;5114039;28;20183;-63
2021/10/26 00:48:42;;;;;;;6.03;4.45;;;4.70;80.10;;;;;;5122960;27;20599;-63
2021/10/26 00:51:10;;;;;;;8.25;5.35;;;4.70;80.10;;;;;;5134103;27;20210;-63
2021/10/26 00:53:38;;;;;;;8.88;5.05;;;4.80;80.10;;;;;;5124311;27;20554;-63
2021/10/26 00:56:06;;;;;;;6.40;4.50;;;4.80;79.90;;;;;;5113600;28;20192;-63
2021/10/26 00:58:33;;;;;;;7.30;4.10;;;4.70;79.70;;;;;;5121658;27;20192;-63
2021/10/26 01:01:03;;;;;;;9.85;5.15;;;4.80;80.10;;;;;;5128452;27;20201;-63
2021/10/26 01:03:30;;;;;;;9.75;4.35;;;4.80;80.30;;;;;;5113544;28;20238;-63
2021/10/26 01:05:58;;;;;;;6.15;3.95;;;4.70;81.20;;;;;;5116895;27;20276;-63
2021/10/26 01:08:25;;;;;;;8.32;4.57;;;4.70;81.50;;;;;;5126096;27;20281;-63
2021/10/26 01:10:52;;;;;;;6.60;3.35;;;4.70;82.30;;;;;;5115835;27;20272;-63
2021/10/26 01:13:23;;;;;;;4.35;3.30;;;4.70;82.60;;;;;;5133648;27;20223;-63
2021/10/26 01:15:53;;;;;;;5.47;3.17;;;4.80;83.10;;;;;;5131556;27;20184;-63
2021/10/26 01:18:22;;;;;;;7.55;3.30;;;4.90;83.30;;;;;;5115473;27;20196;-63
2021/10/26 01:20:50;;;;;;;4.80;3.22;;;4.90;83.70;;;;;;5113247;28;20192;-63
2021/10/26 01:23:18;;;;;;;4.40;3.25;;;4.90;83.60;;;;;;5113307;27;20535;-63
2021/10/26 01:25:45;;;;;;;6.05;3.30;;;4.90;82.90;;;;;;5113050;28;20554;-63
2021/10/26 01:28:13;;;;;;;7.90;3.50;;;4.90;82.00;;;;;;5112854;28;20588;-63
2021/10/26 01:30:41;;;;;;;7.65;2.50;;;4.90;81.50;;;;;;5112991;27;20241;-63
2021/10/26 01:33:09;;;;;;;5.07;3.40;;;4.90;81.40;;;;;;5112948;28;20270;-63
2021/10/26 01:35:37;;;;;;;4.60;3.20;;;4.90;81.30;;;;;;5129787;27;20710;-63
2021/10/26 01:38:07;;;;;;;4.03;2.63;;;4.90;80.70;;;;;;5134064;27;20505;-64
2021/10/26 01:40:35;;;;;;;7.80;3.38;;;4.90;80.10;;;;;;5113886;28;20188;-64
2021/10/26 01:43:03;;;;;;;4.95;3.15;;;4.90;79.70;;;;;;5112645;28;20220;-63
2021/10/26 01:45:30;;;;;;;4.20;2.60;;;4.80;80.10;;;;;;5130207;28;20275;-64
2021/10/26 01:47:58;;;;;;;3.95;2.70;;;4.80;79.90;;;;;;5133310;28;20313;-64
2021/10/26 01:50:25;;;;;;;3.88;2.83;;;4.80;79.80;;;;;;5116240;28;20193;-63
2021/10/26 01:52:52;;;;;;;4.47;2.58;;;4.70;79.10;;;;;;5112611;28;20211;-63
2021/10/26 01:55:21;;;;;;;4.60;3.20;;;4.70;78.60;;;;;;5127668;28;20183;-64
2021/10/26 01:57:48;;;;;;;4.55;3.15;;;4.60;78.60;;;;;;5114998;28;20692;-63
2021/10/26 02:00:18;;;;;;;5.95;3.00;;;4.60;78.80;;;;;;5126631;28;20187;-64
2021/10/26 02:02:46;;;;;;;5.10;3.50;;;4.50;79.00;;;;;;5133225;28;20676;-64
2021/10/26 02:05:14;;;;;;;6.95;4.15;;;4.50;79.50;;;;;;5119478;28;20201;-63
2021/10/26 02:07:41;;;;;;;6.10;3.38;;;4.60;80.10;;;;;;5112532;28;20216;-64
2021/10/26 02:10:13;;;;;;;7.25;2.53;;;4.60;80.70;;;;;;5124345;28;20199;-63
2021/10/26 02:12:41;;;;;;;5.07;2.95;;;4.70;81.50;;;;;;5133390;28;20188;-64
2021/10/26 02:15:09;;;;;;;3.75;2.40;;;4.70;81.30;;;;;;5124718;28;20272;-65
2021/10/26 02:17:37;;;;;;;4.32;2.40;;;4.70;81.40;;;;;;5116908;28;20187;-64
2021/10/26 02:20:05;;;;;;;6.18;2.78;;;4.80;81.50;;;;;;5133185;28;20654;-63
2021/10/26 02:22:33;;;;;;;6.13;2.80;;;4.70;81.30;;;;;;5132405;28;20611;-64
2021/10/26 02:25:00;;;;;;;3.95;2.75;;;4.70;81.10;;;;;;5133866;27;20198;-63
2021/10/26 02:27:27;;;;;;;4.38;2.67;;;4.80;80.20;;;;;;5134597;27;20222;-64
2021/10/26 02:29:56;;;;;;;7.75;4.05;;;4.70;79.80;;;;;;5116452;28;20199;-64
2021/10/26 02:32:23;;;;;;;4.93;3.67;;;4.70;80.00;;;;;;5125802;27;20180;-63
2021/10/26 02:34:51;;;;;;;4.68;2.90;;;4.70;80.50;;;;;;5136854;27;20199;-63
2021/10/26 02:37:18;;;;;;;5.45;3.55;;;4.70;81.10;;;;;;5128114;27;20291;-64
2021/10/26 02:39:45;;;;;;;5.03;3.70;;;4.70;80.30;;;;;;5116096;28;20558;-64
2021/10/26 02:42:17;;;;;;;4.70;3.28;;;4.70;79.90;;;;;;5123240;27;20179;-64
2021/10/26 02:44:45;;;;;;;4.10;2.50;;;4.70;79.50;;;;;;5136548;27;20227;-64
2021/10/26 02:47:14;;;;;;;3.05;2.30;;;4.70;79.40;;;;;;5129716;27;20184;-64
2021/10/26 02:49:41;;;;;;;3.20;2.22;;;4.70;79.60;;;;;;5116357;28;20224;-65
2021/10/26 02:52:09;;;;;;;4.22;2.30;;;4.60;79.50;;;;;;5125981;27;20198;-64
2021/10/26 02:54:36;;;;;;;2.22;1.70;;;4.60;79.70;;;;;;5136530;27;20196;-63
2021/10/26 02:57:03;;;;;;;2.80;2.05;;;4.60;79.50;;;;;;5126409;27;20180;-63
2021/10/26 02:59:31;;;;;;;3.25;1.85;;;4.60;79.90;;;;;;5115909;28;20185;-64
2021/10/26 03:01:58;;;;;;;3.88;2.30;;;4.60;79.80;;;;;;5123522;27;20271;-63
2021/10/26 03:04:27;;;;;;;3.33;2.13;;;4.50;78.70;;;;;;5136412;27;20187;-64
2021/10/26 03:06:54;;;;;;;2.72;1.88;;;4.40;76.60;;;;;;5128557;27;20635;-63
2021/10/26 03:09:21;;;;;;;3.88;2.40;;;4.40;74.80;;;;;;5115650;28;20216;-63
2021/10/26 03:11:48;;;;;;;3.92;3.08;;;4.20;72.90;;;;;;5121053;27;20188;-63
2021/10/26 03:14:17;;;;;;;4.38;2.53;;;4.00;73.70;;;;;;5136369;27;20223;-64
2021/10/26 03:16:45;;;;;;;4.30;2.78;;;4.00;75.00;;;;;;5131014;27;20176;-63
2021/10/26 03:19:12;;;;;;;4.40;2.90;;;3.90;75.90;;;;;;5115564;28;20189;-63
2021/10/26 03:21:41;;;;;;;3.63;2.55;;;4.00;77.90;;;;;;5118445;27;20180;-65
2021/10/26 03:24:09;;;;;;;4.60;2.85;;;4.00;79.30;;;;;;5135877;27;20202;-63
2021/10/26 03:26:36;;;;;;;3.83;2.70;;;4.00;80.20;;;;;;5133447;27;20188;-63
2021/10/26 03:29:04;;;;;;;5.13;2.42;;;4.00;80.90;;;;;;5115254;28;20223;-63
2021/10/26 03:31:31;;;;;;;2.92;1.88;;;4.00;81.70;;;;;;5120863;27;20183;-63
2021/10/26 03:33:59;;;;;;;3.10;2.00;;;4.10;81.60;;;;;;5135604;27;20245;-63
2021/10/26 03:36:27;;;;;;;3.38;2.25;;;4.10;82.60;;;;;;5129527;27;20199;-63
2021/10/26 03:38:56;;;;;;;6.32;5.20;;;4.20;83.00;;;;;;5114905;28;20188;-63
2021/10/26 03:41:23;;;;;;;9.95;8.95;;;4.20;83.30;;;;;;5118801;27;20203;-63
2021/10/26 03:43:51;;;;;;;7.82;7.00;;;4.30;83.50;;;;;;5135265;27;20701;-64
2021/10/26 03:46:19;;;;;;;6.18;3.95;;;4.30;83.20;;;;;;5132034;27;20249;-64
2021/10/26 03:48:46;;;;;;;5.10;3.28;;;4.40;83.70;;;;;;5114385;28;20302;-63
2021/10/26 03:51:16;;;;;;;3.95;2.88;;;4.40;82.50;;;;;;5120343;27;20248;-64
2021/10/26 03:53:43;;;;;;;4.55;2.38;;;4.40;81.30;;;;;;5135338;27;20241;-63
2021/10/26 03:56:13;;;;;;;5.22;3.53;;;4.40;80.00;;;;;;5129816;27;20184;-63
2021/10/26 03:58:41;;;;;;;4.18;2.97;;;4.40;79.80;;;;;;5114787;28;20261;-63
2021/10/26 04:01:09;;;;;;;4.10;2.65;;;4.30;77.70;;;;;;5119124;27;20184;-63
2021/10/26 04:03:37;;;;;;;4.70;2.80;;;4.20;77.50;;;;;;5136068;27;20553;-63
2021/10/26 04:06:06;;;;;;;3.53;2.70;;;4.20;77.80;;;;;;5131654;27;20188;-64
2021/10/26 04:08:38;;;;;;;5.57;3.40;;;4.20;76.60;;;;;;5114693;28;20255;-64
2021/10/26 04:11:11;;;;;;;4.75;2.70;;;4.20;76.20;;;;;;5117392;27;20676;-64
2021/10/26 04:13:40;;;;;;;5.22;2.90;;;4.10;76.70;;;;;;5135407;27;20245;-63
2021/10/26 04:16:07;;;;;;;4.20;2.63;;;4.10;77.10;;;;;;5132384;27;20184;-63
2021/10/26 04:18:35;;;;;;;6.38;3.50;;;4.10;77.90;;;;;;5114550;28;20249;-63
2021/10/26 04:21:06;;;;;;;6.45;3.70;;;4.10;79.20;;;;;;5115449;27;20193;-66
2021/10/26 04:23:35;;;;;;;5.63;2.95;;;4.20;79.80;;;;;;5135381;27;20542;-63
2021/10/26 04:26:02;;;;;;;4.13;3.08;;;4.30;79.70;;;;;;5133554;27;20230;-63
2021/10/26 04:28:35;;;;;;;4.93;3.42;;;4.30;79.30;;;;;;5114297;28;20220;-64
2021/10/26 04:31:05;;;;;;;4.53;2.83;;;4.30;78.90;;;;;;5119503;27;20191;-63
2021/10/26 04:33:33;;;;;;;5.65;2.45;;;4.30;79.30;;;;;;5118822;27;20197;-63
2021/10/26 04:36:03;;;;;;;3.85;2.55;;;4.30;79.70;;;;;;5119622;27;20191;-64
2021/10/26 04:38:32;;;;;;;4.53;2.80;;;4.40;80.00;;;;;;5134487;27;20195;-64
2021/10/26 04:41:02;;;;;;;3.78;1.88;;;4.40;80.30;;;;;;5128879;27;20184;-63
2021/10/26 04:43:29;;;;;;;6.88;2.75;;;4.50;80.80;;;;;;5113808;28;20638;-63
2021/10/26 04:45:56;;;;;;;6.53;2.70;;;4.60;81.20;;;;;;5114721;27;20193;-64
2021/10/26 04:48:25;;;;;;;6.20;4.25;;;4.70;81.80;;;;;;5113172;28;20212;-63
2021/10/26 04:50:53;;;;;;;4.75;3.22;;;4.70;81.50;;;;;;5126562;27;20190;-63
2021/10/26 04:53:22;;;;;;;4.00;1.92;;;4.80;81.00;;;;;;5134071;27;20215;-64
2021/10/26 04:55:50;;;;;;;5.05;2.78;;;4.80;80.60;;;;;;5120490;27;20187;-63
2021/10/26 04:58:17;;;;;;;3.60;2.58;;;4.80;79.40;;;;;;5113923;28;20189;-63
2021/10/26 05:00:44;;;;;;;4.88;2.95;;;4.80;79.30;;;;;;5125675;27;20206;-63
2021/10/26 05:03:11;;;;;;;4.30;2.58;;;4.70;78.50;;;;;;5134069;27;20190;-64
2021/10/26 05:05:40;;;;;;;3.47;1.88;;;4.70;78.10;;;;;;5123021;27;20228;-63
2021/10/26 05:08:09;;;;;;;3.65;2.15;;;4.70;78.50;;;;;;5126111;27;20311;-63
2021/10/26 05:10:37;;;;;;;2.70;1.95;;;4.60;78.40;;;;;;5119136;27;20184;-62
2021/10/26 05:13:04;;;;;;;4.65;2.40;;;4.50;77.10;;;;;;5113422;28;20192;-62
2021/10/26 05:15:31;;;;;;;3.03;1.95;;;4.50;77.90;;;;;;5127309;27;20187;-62
2021/10/26 05:18:03;;;;;;;3.55;2.20;;;4.50;77.70;;;;;;5117949;27;20212;-69
2021/10/26 05:20:34;;;;;;;4.50;2.80;;;4.50;77.70;;;;;;5092566;28;20246;-63
2021/10/26 05:23:05;;;;;;;4.57;2.70;;;4.50;77.60;;;;;;5106662;28;20187;-63
2021/10/26 05:25:33;;;;;;;5.47;2.83;;;4.50;78.40;;;;;;5110473;28;20273;-62
2021/10/26 05:28:01;;;;;;;8.95;2.92;;;4.50;79.10;;;;;;5110450;28;20188;-62
2021/10/26 05:30:29;;;;;;;9.90;3.80;;;4.50;79.80;;;;;;5096812;28;20266;-62
2021/10/26 05:32:56;;;;;;;3.95;3.55;;;4.50;79.80;;;;;;5093794;28;20564;-62
2021/10/26 05:35:24;;;;;;;6.88;3.25;;;4.50;79.50;;;;;;5096241;28;20652;-63
2021/10/26 05:37:51;;;;;;;6.65;4.05;;;4.40;78.00;;;;;;5092472;28;20250;-64
2021/10/26 05:40:20;;;;;;;6.03;3.30;;;4.40;78.50;;;;;;5108727;27;20580;-62
2021/10/26 05:42:48;;;;;;;8.18;5.18;;;4.40;79.40;;;;;;5109402;28;20307;-62
2021/10/26 05:45:15;;;;;;;11.10;4.75;;;4.40;79.50;;;;;;5105652;27;20272;-62
2021/10/26 05:47:42;;;;;;;7.18;5.05;;;4.50;79.90;;;;;;5103802;28;20220;-66
2021/10/26 05:50:10;;;;;;;14.73;7.10;;;4.50;80.50;;;;;;5110026;28;20257;-63
2021/10/26 05:52:37;;;;;;;9.55;5.57;;;4.50;81.00;;;;;;5110312;28;20189;-63
2021/10/26 05:55:05;;;;;;;17.58;8.55;;;4.60;81.70;;;;;;5092613;28;20224;-62
2021/10/26 05:57:34;;;;;;;15.65;10.40;;;4.60;81.70;;;;;;5097090;28;20253;-63
2021/10/26 06:00:01;;;;;;;10.45;6.00;;;4.70;81.80;;;;;;5099313;27;20190;-62
2021/10/26 06:02:28;;;;;;;8.15;5.15;;;4.80;82.50;;;;;;5113384;27;20198;-62
2021/10/26 06:04:56;;;;;;;9.02;4.93;;;4.80;84.40;;;;;;5110873;27;20185;-63
2021/10/26 06:07:30;;;;;;;11.07;4.57;;;4.80;83.80;;;;;;5103391;27;20197;-67
2021/10/26 06:09:57;;;;;;;4.60;3.08;;;4.80;83.90;;;;;;5100333;27;20551;-62
2021/10/26 06:12:29;;;;;;;7.43;2.97;;;4.90;84.20;;;;;;5098741;27;20656;-62
2021/10/26 06:14:58;;;;;;;5.15;3.30;;;5.00;84.40;;;;;;5096780;28;20188;-64
2021/10/26 06:17:25;;;;;;;4.15;3.28;;;5.10;84.60;;;;;;5114753;27;20216;-63
2021/10/26 06:19:52;;;;;;;4.82;3.42;;;5.20;84.20;;;;;;5113871;28;20200;-63
2021/10/26 06:22:20;;;;;;;3.97;3.22;;;5.30;83.60;;;;;;5113238;27;20196;-63
2021/10/26 06:24:48;;;;;;;8.27;4.57;;;5.40;83.20;;;;;;5102627;27;20220;-63
2021/10/26 06:27:15;;;;;;;9.02;4.80;;;5.50;83.20;;;;;;5114169;28;20270;-62
2021/10/26 06:29:42;;;;;;;7.63;4.20;;;5.60;83.20;;;;;;5117525;27;20204;-63
2021/10/26 06:32:11;;;;;;;6.13;3.70;;;5.60;82.80;;;;;;5117294;28;20188;-63
2021/10/26 06:34:38;;;;;;;2.75;1.90;;;5.70;82.30;;;;;;5124903;27;20176;-63
2021/10/26 06:37:05;;;;;;;3.90;2.53;;;5.70;81.90;;;;;;5126412;27;20226;-63
2021/10/26 06:39:33;;;;;;;7.47;3.47;;;5.70;81.10;;;;;;5116821;28;20241;-63
2021/10/26 06:42:00;;;;;;;3.92;2.83;;;5.70;80.80;;;;;;5116876;28;20273;-62
2021/10/26 06:44:28;;;;;;;4.97;2.65;;;5.80;81.00;;;;;;5116329;28;20697;-62
2021/10/26 06:46:57;;;;;;;6.35;3.17;;;5.80;81.30;;;;;;5116871;28;20216;-63
2021/10/26 06:49:27;;;;;;;4.60;3.00;;;5.90;81.20;;;;;;5116490;28;20216;-63
2021/10/26 06:51:54;;;;;;;4.32;3.10;;;5.90;81.10;;;;;;5116637;28;20184;-63
2021/10/26 06:54:21;;;;;;;5.03;2.88;;;5.90;81.10;;;;;;5116756;28;20687;-62
2021/10/26 06:56:48;;;;;;;9.13;3.45;;;;;;;;;;5116436;28;20531;-63
2021/10/26 06:59:16;;;;;;;4.75;3.65;;;;;;;;;;5116546;28;20189;-63
2021/10/26 07:01:48;;;;;;;13.30;7.50;;;;;;;;;;5116314;28;20233;-64
2021/10/26 07:04:16;;;;;;;7.32;4.15;;;;;;;;;;5116355;28;20188;-64
2021/10/26 07:06:44;;;;;;;5.90;3.58;;;;;;;;;;5116402;28;20189;-62
2021/10/26 07:09:17;;;;;;;5.43;3.25;;;;;;;;;;5116051;28;20219;-63
2021/10/26 07:11:44;;;;;;;4.68;3.08;;;;;;;;;;5115584;28;20188;-63
2021/10/26 07:14:12;;;;;;;12.25;4.75;;;;;;;;;;5115875;28;20184;-63
2021/10/26 07:16:41;;;;;;;6.55;3.85;;;;;;;;;;5116357;28;20184;-63
2021/10/26 07:19:08;;;;;;;10.70;4.63;;;;;;;;;;5116501;28;20235;-63
2021/10/26 07:21:36;;;;;;;6.30;4.38;;;;;;;;;;5116337;28;20223;-63
2021/10/26 07:24:05;;;;;;;7.30;4.90;;;;;;;;;;5116079;28;20231;-63
2021/10/26 07:26:41;;;;;;;5.25;4.65;;;;;;;;;;5116218;28;20536;-63
2021/10/26 07:29:08;;;;;;;5.88;4.38;;;;;;;;;;5115888;28;20251;-62
2021/10/26 07:31:36;;;;;;;5.93;4.05;;;;;;;;;;5116009;28;20578;-63
2021/10/26 07:34:03;;;;;;;9.18;5.10;;;;;;;;;;5115883;28;20192;-63
2021/10/26 07:36:38;;;;;;;13.02;6.65;;;;;;;;;;5115552;28;20188;-63
2021/10/26 07:39:19;;;;;;;12.25;7.25;;;;;;;;;;5115584;28;20631;-63
2021/10/26 07:41:46;;;;;;;13.93;8.73;;;;;;;;;;5115838;28;20275;-63
2021/10/26 07:44:13;;;;;;;22.58;17.55;;;;;;;;;;5115215;28;20670;-63
2021/10/26 07:46:41;;;;;;;12.95;8.68;;;;;;;;;;5115347;28;20194;-63
2021/10/26 07:49:09;;;;;;;13.85;8.25;;;;;;;;;;5116123;28;20581;-63
2021/10/26 07:51:36;;;;;;;13.02;7.97;;;;;;;;;;5115647;28;20188;-63
2021/10/26 07:54:04;;;;;;;14.80;9.68;;;;;;;;;;5115325;28;20699;-63
2021/10/26 07:56:33;;;;;;;16.35;9.75;;;;;;;;;;5115082;28;20242;-63
2021/10/26 07:59:02;;;;;;;9.60;6.85;;;;;;;;;;5115569;28;20538;-64
2021/10/26 08:01:29;;;;;;;9.32;5.35;;;;;;;;;;5115422;28;20243;-65
2021/10/26 08:03:57;;;;;;;6.75;5.05;;;;;;;;;;5115175;28;20221;-64
2021/10/26 08:06:24;;;;;;;8.00;4.75;;;;;;;;;;5115464;28;20188;-63
2021/10/26 08:08:52;;;;;;;10.07;5.53;;;;;;;;;;5114621;28;20278;-63
2021/10/26 08:11:19;;;;;;;8.32;4.30;;;;;;;;;;5115093;28;20189;-63
2021/10/26 08:13:53;;;;;;;9.20;5.05;;;;;;;;;;5114881;28;20215;-63
2021/10/26 08:16:21;;;;;;;8.77;5.97;;;;;;;;;;5114928;28;20679;-63
2021/10/26 08:18:49;;;;;;;9.32;6.70;;;;;;;;;;5114910;28;20190;-64
2021/10/26 08:21:21;;;;;;;11.35;7.07;;;;;;;;;;5115047;28;20184;-64
2021/10/26 08:23:49;;;;;;;7.03;5.40;;;;;;;;;;5113952;28;20202;-63
2021/10/26 08:26:22;;;;;;;9.23;5.97;;;;;;;;;;5114668;28;20188;-64
2021/10/26 08:28:54;;;;;;;8.43;4.80;;;;;;;;;;5114990;28;20192;-63
2021/10/26 08:31:34;;;;;;;11.05;5.60;;;;;;;;;;5114627;28;20188;-64
2021/10/26 08:34:10;;;;;;;15.50;10.43;;;;;;;;;;5114400;28;20215;-63
2021/10/26 08:36:37;;;;;;;10.00;7.47;;;;;;;;;;5115293;28;20179;-63
2021/10/26 08:39:05;;;;;;;11.00;6.60;;;;;;;;;;5114243;28;20219;-63
2021/10/26 08:41:33;;;;;;;8.20;6.22;;;;;;;;;;5114669;28;20188;-63
2021/10/26 08:44:01;;;;;;;8.23;5.30;;;;;;;;;;5113759;28;20216;-64
2021/10/26 08:46:30;;;;;;;7.55;4.63;;;;;;;;;;5114701;28;20184;-64
2021/10/26 08:48:59;;;;;;;7.57;4.57;;;;;;;;;;5114328;28;20611;-64
2021/10/26 08:51:27;;;;;;;9.88;4.90;;;;;;;;;;5114248;28;20185;-64
2021/10/26 08:53:54;;;;;;;13.88;5.15;;;;;;;;;;5113956;28;20641;-63
2021/10/26 08:56:22;;;;;;;16.98;5.18;;;;;;;;;;5113996;28;20684;-63
2021/10/26 08:58:50;;;;;;;11.52;4.55;;;;;;;;;;5114287;28;20184;-64
2021/10/26 09:01:21;;;;;;;15.20;5.40;;;;;;;;;;5114237;28;20216;-63
2021/10/26 09:03:52;;;;;;;8.00;4.68;;;;;;;;;;5113942;28;20185;-64
2021/10/26 09:06:25;;;;;;;6.63;5.30;;;;;;;;;;5114143;28;20192;-64
2021/10/26 09:08:56;;;;;;;13.23;5.65;;;;;;;;;;5114338;28;20245;-63
2021/10/26 09:11:27;;;;;;;11.73;5.20;;;;;;;;;;5113863;28;20249;-63
2021/10/26 09:17:05;;;;;;;17.80;5.60;;;;;;;;;;5114043;28;20261;-63
2021/10/26 09:19:41;;;;;;;14.57;6.47;;;;;;;;;;5113829;28;20258;-63
2021/10/26 09:22:12;;;;;;;7.82;5.88;;;;;;;;;;5113552;28;20227;-63
2021/10/26 09:24:53;;;;;;;10.85;7.35;;;;;;;;;;5113966;28;20224;-63
2021/10/26 09:27:21;;;;;;;14.18;6.57;;;;;;;;;;5113645;28;20245;-64
2021/10/26 09:29:49;;;;;;;9.98;6.00;;;;;;;;;;5113559;28;20208;-64
2021/10/26 09:32:18;;;;;;;12.32;6.95;;;;;;;;;;5113749;28;20188;-65
2021/10/26 09:34:48;;;;;;;15.65;5.30;;;;;;;;;;5113214;28;20242;-64
2021/10/26 09:37:19;;;;;;;13.60;6.10;;;;;;;;;;5113539;28;20243;-64
2021/10/26 09:39:55;;;;;;;9.88;5.18;;;;;;;;;;5113223;28;20638;-64
2021/10/26 09:42:22;;;;;;;6.88;5.22;;;;;;;;;;5113874;28;20184;-63
2021/10/26 09:44:52;;;;;;;7.43;5.28;;;;;;;;;;5072806;28;20190;-63
2021/10/26 09:47:23;;;;;;;9.32;6.10;;;;;;;;;;5072849;28;20190;-63
2021/10/26 09:49:59;;;;;;;12.23;5.65;;;;;;;;;;5072805;28;20224;-63
2021/10/26 09:52:30;;;;;;;8.20;5.38;;;;;;;;;;5072786;28;20213;-63
2021/10/26 09:55:06;;;;;;;13.25;4.60;;;;;;;;;;5072768;28;20639;-63
2021/10/26 09:57:36;;;;;;;9.65;5.55;;;;;;;;;;5073158;28;20192;-64
2021/10/26 10:00:05;;;;;;;9.75;5.30;;;;;;;;;;5073075;28;20197;-63
2021/10/26 10:02:33;;;;;;;6.88;4.90;;;;;;;;;;5072613;28;20227;-64
2021/10/26 10:05:02;;;;;;;11.03;5.57;;;;;;;;;;5072461;28;20190;-63
2021/10/26 10:07:35;;;;;;;13.35;5.53;;;;;;;;;;5072829;28;20428;-64
2021/10/26 10:10:04;;;;;;;9.93;4.90;;;;;;;;;;5072683;28;20213;-63
2021/10/26 10:12:32;;;;;;;6.78;5.35;;;;;;;;;;5072599;28;20567;-63
2021/10/26 10:14:59;;;;;;;7.97;5.35;;;;;;;;;;5075955;28;20604;-63
2021/10/26 10:17:28;;;;;;;6.95;4.93;;;;;;;;;;5090221;28;20185;-63
2021/10/26 10:19:55;;;;;;;6.88;4.15;;;;;;;;;;5074253;28;20190;-64
2021/10/26 10:22:26;;;;;;;10.95;5.15;;;;;;;;;;5072403;28;20198;-64
2021/10/26 10:24:56;;;;;;;6.10;5.30;;;;;;;;;;5072416;28;20197;-64
2021/10/26 10:27:24;;;;;;;6.80;4.65;;;;;;;;;;5072688;28;20609;-64
2021/10/26 10:29:52;;;;;;;6.22;4.60;;;;;;;;;;5072613;28;20593;-64
2021/10/26 10:32:21;;;;;;;7.70;5.50;;;;;;;;;;5072166;28;20190;-64
2021/10/26 10:34:48;;;;;;;6.95;4.78;;;;;;;;;;5092153;28;20274;-64
2021/10/26 10:37:16;;;;;;;11.20;5.70;;;;;;;;;;5085654;28;20768;-63
2021/10/26 10:39:45;;;;;;;9.80;5.55;;;;;;;;;;5082986;28;20220;-64
2021/10/26 10:42:22;;;;;;;13.43;6.30;;;;;;;;;;5052203;28;20190;-63
2021/10/26 10:44:49;;;;;;;9.82;6.85;;;;;;;;;;5102813;28;20230;-64
2021/10/26 10:47:47;;;;;;;8.60;6.93;;;;;;;;;;5129338;27;20635;-64
2021/10/26 10:50:34;;;;;;;8.93;7.10;;;;;;;;;;5012467;28;20212;-64
2021/10/26 10:53:07;;;;;;;11.75;6.65;;;;;;;;;;5107618;27;20275;-63
2021/10/26 10:55:36;;;;;;;11.48;6.63;;;;;;;;;;5116016;28;20188;-63
2021/10/26 10:58:36;;;;;;;9.32;6.22;;;;;;;;;;5129701;27;20779;-63
2021/10/26 11:01:29;;;;;;;14.25;6.43;;;;;;;;;;5033445;28;20203;-63
2021/10/26 11:03:57;;;;;;;26.00;18.83;;;;;;;;;;5033203;28;20580;-63
2021/10/26 11:06:43;;;;;;;16.15;12.30;;;;;;;;;;5098641;27;20192;-63
2021/10/26 11:09:27;;;;;;;14.77;10.15;;;;;;;;;;5136399;27;20638;-64
2021/10/26 11:12:11;;;;;;;10.00;8.38;;;;;;;;;;5136525;27;20268;-64
2021/10/26 11:14:46;;;;;;;11.60;6.60;;;;;;;;;;5136734;27;20664;-63
2021/10/26 11:17:31;;;;;;;11.75;7.10;;;;;;;;;;5136573;27;20199;-64
2021/10/26 11:19:59;;;;;;;10.25;5.93;;;;;;;;;;5136481;27;20196;-63
2021/10/26 11:22:45;;;;;;;10.25;8.30;;;;;;;;;;5136565;27;20222;-64
2021/10/26 11:25:22;;;;;;;13.80;7.20;;;;;;;;;;5136310;27;20190;-64
2021/10/26 11:27:51;;;;;;;15.33;6.70;;;;;;;;;;5136030;27;20188;-64
2021/10/26 11:30:37;;;;;;;9.17;6.47;;;;;;;;;;5136270;27;20998;-64
2021/10/26 11:33:31;;;;;;;7.40;5.30;;;;;;;;;;5136457;27;20440;-63
2021/10/26 11:36:02;;;;;;;7.10;4.70;;;;;;;;;;5076752;27;20630;-64
2021/10/26 11:38:31;;;;;;;8.00;5.38;;;;;;;;;;5136076;27;20298;-63
2021/10/26 11:40:58;;;;;;;6.35;4.30;;;;;;;;;;5136087;27;20230;-63
2021/10/26 11:43:31;;;;;;;6.97;4.38;;;;;;;;;;5136068;27;20258;-63
2021/10/26 11:45:59;;;;;;;6.97;4.60;;;;;;;;;;5136319;27;20703;-63
2021/10/26 11:48:42;;;;;;;11.50;5.55;;;;;;;;;;5136037;27;20494;-63
2021/10/26 11:51:19;;;;;;;8.73;7.22;;;;;;;;;;5132471;27;20247;-64
2021/10/26 11:53:47;;;;;;;7.40;4.20;;;;;;;;;;5136030;27;20187;-64
2021/10/26 11:56:21;;;;;;;8.77;5.20;;;;;;;;;;5135853;27;20269;-63
2021/10/26 11:59:09;;;;;;;6.88;4.35;;;;;;;;;;5135385;27;20782;-64
2021/10/26 12:01:47;;;;;;;8.40;4.17;;;;;;;;;;5128120;27;20191;-63
2021/10/26 12:04:18;;;;;;;6.63;3.50;;;;;;;;;;5135736;27;20798;-64
2021/10/26 12:06:46;;;;;;;5.47;4.07;;;;;;;;;;5135565;27;20429;-64
2021/10/26 12:09:15;;;;;;;3.97;2.10;;;;;;;;;;5135666;27;20527;-65
2021/10/26 12:11:44;;;;;;;4.30;2.43;;;;;;;;;;5135617;27;20480;-65
2021/10/26 12:14:25;;;;;;;3.80;1.70;;;;;;;;;;5135851;27;20429;-63
2021/10/26 12:17:22;;;;;;;3.23;2.07;;;;;;;;;;5135676;27;20525;-63
2021/10/26 12:19:52;;;;;;;3.27;1.60;;;;;;;;;;5135713;27;20480;-63
2021/10/26 12:22:25;;;;;;;2.50;1.47;;;6.00;80.80;;;;;;5135382;27;20441;-64
2021/10/26 12:24:54;;;;;;;2.37;1.13;;;;;;;;;;5135609;27;20492;-63
2021/10/26 12:27:27;;;;;;;2.63;1.30;;;35.30;27.30;;;;;;5134939;27;20433;-63
2021/10/26 12:29:55;;;;;;;3.20;1.63;;;37.80;21.20;;;;;;5135508;27;20438;-63
2021/10/26 12:32:24;;;;;;;3.80;1.53;;;38.50;20.40;;;;;;5134837;27;20476;-63
2021/10/26 12:34:53;;;;;;;2.97;1.20;;;39.30;19.40;;;;;;5134684;27;20444;-63
2021/10/26 12:37:31;;;;;;;2.43;1.30;;;39.80;18.70;;;;;;5135199;27;20462;-63
2021/10/26 12:39:59;;;;;;;3.80;1.40;;;39.40;17.80;;;;;;5134607;27;20417;-63
2021/10/26 12:42:32;;;;;;;3.40;2.20;;;38.70;17.50;;;;;;5134805;27;20480;-63
2021/10/26 12:45:00;;;;;;;2.40;1.80;;;37.70;17.40;;;;;;5134891;27;20429;-63
2021/10/26 12:47:29;;;;;;;3.60;1.67;;;35.70;17.40;;;;;;5134853;27;20429;-63
2021/10/26 12:49:58;;;;;;;4.50;1.73;;;33.50;18.70;;;;;;5134889;27;20838;-63
2021/10/26 12:52:25;;;;;;;2.60;1.37;;;31.30;20.10;;;;;;5134862;27;20533;-63
2021/10/26 12:54:53;;;;;;;2.23;1.60;;;29.60;22.10;;;;;;5110678;27;20439;-64
2021/10/26 12:57:36;;;;;;;3.17;1.30;;;28.10;23.60;;;;;;5093927;28;20832;-64
2021/10/26 13:00:20;;;;;;;2.70;1.23;;;26.60;25.10;;;;;;5093630;28;20441;-64
2021/10/26 13:02:47;;;;;;;3.03;1.53;;;25.30;26.60;;;;;;5093443;28;20531;-64
2021/10/26 13:05:16;;;;;;;2.90;2.10;;;24.30;27.90;;;;;;5093569;28;20500;-65
2021/10/26 13:07:43;;;;;;;3.03;1.90;;;23.30;28.80;;;;;;5093818;28;20432;-64
2021/10/26 13:10:11;;;;;;;3.33;1.77;;;22.50;30.00;;;;;;5093271;28;20504;-64
2021/10/26 13:12:41;;;;;;;3.10;1.83;;;21.80;31.20;;;;;;5093834;28;20495;-63
2021/10/26 13:15:10;;;;;;;3.60;1.33;;;21.10;33.00;;;;;;5093314;28;20435;-63
2021/10/26 13:17:40;;;;;;;3.93;1.20;;;20.40;34.20;;;;;;5093640;28;20446;-63
2021/10/26 13:20:16;;;;;;;3.13;1.10;;;19.90;35.90;;;;;;5093904;28;20800;-63
2021/10/26 13:22:55;;;;;;;3.13;1.70;;;19.30;37.70;;;;;;5092835;28;20460;-64
2021/10/26 13:25:23;;;;;;;2.83;1.63;;;18.80;38.80;;;;;;5093437;28;20932;-63
2021/10/26 13:27:50;;;;;;;2.50;1.30;;;18.40;40.20;;;;;;5093258;28;20481;-63
2021/10/26 13:30:17;;;;;;;2.73;1.73;;;18.10;41.10;;;;;;5093273;28;20854;-64
2021/10/26 13:32:44;;;;;;;3.70;1.90;;;17.80;42.50;;;;;;5093117;28;21004;-63
2021/10/26 13:35:11;;;;;;;5.73;2.40;;;17.50;43.40;;;;;;5092893;28;20463;-63
2021/10/26 13:37:39;;;;;;;2.67;1.73;;;17.30;44.50;;;;;;5093473;28;20478;-63
2021/10/26 13:40:07;;;;;;;3.40;1.70;;;17.20;44.90;;;;;;5093186;28;20525;-63
2021/10/26 13:42:35;;;;;;;4.07;1.97;;;17.10;45.80;;;;;;5093118;28;21079;-63
2021/10/26 13:45:06;;;;;;;3.57;1.90;;;17.00;46.10;;;;;;5092867;28;20435;-63
2021/10/26 13:47:40;;;;;;;3.03;1.50;;;16.80;46.50;;;;;;5093194;28;20447;-64
2021/10/26 13:50:09;;;;;;;3.53;1.37;;;16.70;47.60;;;;;;5093042;28;20448;-62